sensor_id;sensor_type;location;lat;lon;timestamp;pressure;altitude;pressure_sealevel;temperature;humidity
52949;BME280;38812;50.942;3.644;2023-05-02T00:00:49;102094.88;;;9.39;100.00
52949;BME280;38812;50.942;3.644;2023-05-02T00:03:14;102095.78;;;9.47;100.00
52949;BME280;38812;50.942;3.644;2023-05-02T00:05:41;102097.53;;;9.48;100.00
52949;BME280;38812;50.942;3.644;2023-05-02T00:08:07;102094.94;;;9.49;100.00
52949;BME280;38812;50.942;3.644;2023-05-02T00:10:32;102096.69;;;9.52;100.00
52949;BME280;38812;50.942;3.644;2023-05-02T00:12:58;102093.16;;;9.54;100.00
52949;BME280;38812;50.942;3.644;2023-05-02T00:15:23;102095.78;;;9.56;100.00
52949;BME280;38812;50.942;3.644;2023-05-02T00:17:49;102094.94;;;9.58;100.00
52949;BME280;38812;50.942;3.644;2023-05-02T00:20:15;102099.31;;;9.58;100.00
52949;BME280;38812;50.942;3.644;2023-05-02T00:22:40;102096.69;;;9.58;100.00
52949;BME280;38812;50.942;3.644;2023-05-02T00:25:06;102084.41;;;9.54;100.00
52949;BME280;38812;50.942;3.644;2023-05-02T00:27:32;102106.31;;;9.59;100.00
52949;BME280;38812;50.942;3.644;2023-05-02T00:29:58;102097.56;;;9.57;100.00
52949;BME280;38812;50.942;3.644;2023-05-02T00:32:26;102111.53;;;9.56;100.00
52949;BME280;38812;50.942;3.644;2023-05-02T00:34:52;102105.44;;;9.63;100.00
52949;BME280;38812;50.942;3.644;2023-05-02T00:37:18;102108.97;;;9.70;100.00
52949;BME280;38812;50.942;3.644;2023-05-02T00:39:43;102112.47;;;9.70;100.00
52949;BME280;38812;50.942;3.644;2023-05-02T00:42:09;102119.47;;;9.70;100.00
52949;BME280;38812;50.942;3.644;2023-05-02T00:44:34;102111.59;;;9.67;100.00
52949;BME280;38812;50.942;3.644;2023-05-02T00:47:00;102120.31;;;9.61;100.00
52949;BME280;38812;50.942;3.644;2023-05-02T00:49:26;102115.06;;;9.61;100.00
52949;BME280;38812;50.942;3.644;2023-05-02T00:51:53;102109.78;;;9.55;100.00
52949;BME280;38812;50.942;3.644;2023-05-02T00:54:18;102104.53;;;9.55;100.00
52949;BME280;38812;50.942;3.644;2023-05-02T00:56:44;102102.78;;;9.48;100.00
52949;BME280;38812;50.942;3.644;2023-05-02T00:59:10;102104.53;;;9.55;100.00
52949;BME280;38812;50.942;3.644;2023-05-02T01:07:34;102108.09;;;9.66;100.00
52949;BME280;38812;50.942;3.644;2023-05-02T01:13:08;102115.06;;;9.64;100.00
52949;BME280;38812;50.942;3.644;2023-05-02T01:15:37;102116.81;;;9.59;100.00
52949;BME280;38812;50.942;3.644;2023-05-02T01:18:04;102118.53;;;9.58;100.00
52949;BME280;38812;50.942;3.644;2023-05-02T01:20:35;102108.06;;;9.61;100.00
52949;BME280;38812;50.942;3.644;2023-05-02T01:23:08;102130.84;;;9.70;100.00
52949;BME280;38812;50.942;3.644;2023-05-02T01:25:52;102127.34;;;9.71;100.00
52949;BME280;38812;50.942;3.644;2023-05-02T01:28:30;102120.34;;;9.67;100.00
52949;BME280;38812;50.942;3.644;2023-05-02T01:31:02;102130.84;;;9.70;100.00
52949;BME280;38812;50.942;3.644;2023-05-02T01:33:29;102118.59;;;9.68;100.00
52949;BME280;38812;50.942;3.644;2023-05-02T01:35:56;102128.22;;;9.70;100.00
52949;BME280;38812;50.942;3.644;2023-05-02T01:38:23;102115.09;;;9.67;100.00
52949;BME280;38812;50.942;3.644;2023-05-02T01:40:50;102133.47;;;9.73;100.00
52949;BME280;38812;50.942;3.644;2023-05-02T01:43:18;102134.34;;;9.72;100.00
52949;BME280;38812;50.942;3.644;2023-05-02T01:45:46;102132.59;;;9.71;100.00
52949;BME280;38812;50.942;3.644;2023-05-02T01:48:13;102143.09;;;9.74;100.00
52949;BME280;38812;50.942;3.644;2023-05-02T01:50:42;102133.47;;;9.69;100.00
52949;BME280;38812;50.942;3.644;2023-05-02T01:53:10;102137.88;;;9.74;100.00
52949;BME280;38812;50.942;3.644;2023-05-02T01:55:42;102143.97;;;9.70;100.00
52949;BME280;38812;50.942;3.644;2023-05-02T01:58:10;102134.31;;;9.66;100.00
52949;BME280;38812;50.942;3.644;2023-05-02T02:00:36;102138.69;;;9.66;100.00
52949;BME280;38812;50.942;3.644;2023-05-02T02:03:05;102130.78;;;9.58;100.00
52949;BME280;38812;50.942;3.644;2023-05-02T02:05:35;102144.78;;;9.60;100.00
52949;BME280;38812;50.942;3.644;2023-05-02T02:08:01;102145.63;;;9.53;100.00
52949;BME280;38812;50.942;3.644;2023-05-02T02:10:29;102150.88;;;9.50;100.00
52949;BME280;38812;50.942;3.644;2023-05-02T02:13:04;102172.75;;;9.52;100.00
52949;BME280;38812;50.942;3.644;2023-05-02T02:15:34;102159.63;;;9.49;100.00
52949;BME280;38812;50.942;3.644;2023-05-02T02:18:04;102151.75;;;9.46;100.00
52949;BME280;38812;50.942;3.644;2023-05-02T02:20:33;102153.50;;;9.47;100.00
52949;BME280;38812;50.942;3.644;2023-05-02T02:23:02;102157.88;;;9.48;100.00
52949;BME280;38812;50.942;3.644;2023-05-02T02:25:30;102153.41;;;9.25;100.00
52949;BME280;38812;50.942;3.644;2023-05-02T02:27:56;102169.03;;;9.07;100.00
52949;BME280;38812;50.942;3.644;2023-05-02T02:30:23;102168.00;;;8.88;100.00
52949;BME280;38812;50.942;3.644;2023-05-02T02:32:48;102163.59;;;8.80;100.00
52949;BME280;38812;50.942;3.644;2023-05-02T02:35:14;102164.34;;;8.64;100.00
52949;BME280;38812;50.942;3.644;2023-05-02T02:37:45;102184.44;;;8.65;100.00
52949;BME280;38812;50.942;3.644;2023-05-02T02:40:23;102172.06;;;8.50;100.00
52949;BME280;38812;50.942;3.644;2023-05-02T02:48:23;102175.34;;;8.27;100.00
52949;BME280;38812;50.942;3.644;2023-05-02T02:51:10;102171.88;;;8.30;100.00
52949;BME280;38812;50.942;3.644;2023-05-02T02:53:49;102190.25;;;8.33;100.00
52949;BME280;38812;50.942;3.644;2023-05-02T02:56:38;102194.47;;;8.19;100.00
52949;BME280;38812;50.942;3.644;2023-05-02T02:59:19;102198.00;;;8.22;100.00
52949;BME280;38812;50.942;3.644;2023-05-02T03:01:55;102198.06;;;8.30;100.00
52949;BME280;38812;50.942;3.644;2023-05-02T03:04:25;102194.44;;;8.16;100.00
52949;BME280;38812;50.942;3.644;2023-05-02T03:06:51;102195.38;;;8.22;100.00
52949;BME280;38812;50.942;3.644;2023-05-02T03:09:17;102199.59;;;8.10;100.00
52949;BME280;38812;50.942;3.644;2023-05-02T03:11:43;102201.25;;;8.00;100.00
52949;BME280;38812;50.942;3.644;2023-05-02T03:14:10;102201.19;;;7.96;100.00
52949;BME280;38812;50.942;3.644;2023-05-02T03:16:39;102198.38;;;7.79;100.00
52949;BME280;38812;50.942;3.644;2023-05-02T03:19:05;102193.88;;;7.67;100.00
52949;BME280;38812;50.942;3.644;2023-05-02T03:21:31;102208.69;;;7.67;100.00
52949;BME280;38812;50.942;3.644;2023-05-02T03:24:01;102212.06;;;7.58;100.00
52949;BME280;38812;50.942;3.644;2023-05-02T03:26:27;102210.31;;;7.55;100.00
52949;BME280;38812;50.942;3.644;2023-05-02T03:28:53;102210.34;;;7.60;100.00
52949;BME280;38812;50.942;3.644;2023-05-02T03:31:18;102206.81;;;7.58;100.00
52949;BME280;38812;50.942;3.644;2023-05-02T03:33:44;102212.06;;;7.56;100.00
52949;BME280;38812;50.942;3.644;2023-05-02T03:36:10;102212.81;;;7.48;100.00
52949;BME280;38812;50.942;3.644;2023-05-02T03:38:35;102205.72;;;7.41;100.00
52949;BME280;38812;50.942;3.644;2023-05-02T03:41:01;102203.84;;;7.29;100.00
52949;BME280;38812;50.942;3.644;2023-05-02T03:43:28;102209.91;;;7.27;100.00
52949;BME280;38812;50.942;3.644;2023-05-02T03:45:53;102213.25;;;7.19;100.00
52949;BME280;38812;50.942;3.644;2023-05-02T03:48:19;102205.38;;;7.16;100.00
52949;BME280;38812;50.942;3.644;2023-05-02T03:50:44;102206.22;;;7.15;100.00
52949;BME280;38812;50.942;3.644;2023-05-02T03:53:10;102210.66;;;7.19;100.00
52949;BME280;38812;50.942;3.644;2023-05-02T03:55:39;102206.41;;;7.26;100.00
52949;BME280;38812;50.942;3.644;2023-05-02T03:58:05;102215.88;;;7.19;100.00
52949;BME280;38812;50.942;3.644;2023-05-02T04:00:31;102222.81;;;7.14;100.00
52949;BME280;38812;50.942;3.644;2023-05-02T04:02:56;102224.34;;;7.03;100.00
52949;BME280;38812;50.942;3.644;2023-05-02T04:05:21;102236.56;;;7.04;100.00
52949;BME280;38812;50.942;3.644;2023-05-02T04:07:47;102234.91;;;7.09;100.00
52949;BME280;38812;50.942;3.644;2023-05-02T04:10:12;102234.47;;;7.39;100.00
52949;BME280;38812;50.942;3.644;2023-05-02T04:12:41;102234.06;;;7.74;100.00
52949;BME280;38812;50.942;3.644;2023-05-02T04:15:08;102240.75;;;8.21;100.00
52949;BME280;38812;50.942;3.644;2023-05-02T04:17:33;102249.72;;;8.42;100.00
52949;BME280;38812;50.942;3.644;2023-05-02T04:19:59;102248.19;;;8.65;100.00
52949;BME280;38812;50.942;3.644;2023-05-02T04:22:24;102257.06;;;8.79;100.00
52949;BME280;38812;50.942;3.644;2023-05-02T04:24:49;102245.72;;;8.82;100.00
52949;BME280;38812;50.942;3.644;2023-05-02T04:27:15;102263.31;;;8.98;100.00
52949;BME280;38812;50.942;3.644;2023-05-02T04:29:40;102265.16;;;9.08;100.00
52949;BME280;38812;50.942;3.644;2023-05-02T04:32:06;102265.94;;;8.98;100.00
52949;BME280;38812;50.942;3.644;2023-05-02T04:34:31;102268.59;;;9.01;100.00
52949;BME280;38812;50.942;3.644;2023-05-02T04:36:57;102265.91;;;8.93;100.00
52949;BME280;38812;50.942;3.644;2023-05-02T04:39:22;102272.88;;;8.93;100.00
52949;BME280;38812;50.942;3.644;2023-05-02T04:41:47;102279.84;;;8.86;100.00
52949;BME280;38812;50.942;3.644;2023-05-02T04:44:13;102273.66;;;8.80;100.00
52949;BME280;38812;50.942;3.644;2023-05-02T04:46:38;102289.41;;;8.83;100.00
52949;BME280;38812;50.942;3.644;2023-05-02T04:49:04;102290.50;;;9.08;100.00
52949;BME280;38812;50.942;3.644;2023-05-02T04:51:29;102293.06;;;9.03;100.00
52949;BME280;38812;50.942;3.644;2023-05-02T04:53:56;102280.03;;;9.14;100.00
52949;BME280;38812;50.942;3.644;2023-05-02T04:56:21;102299.38;;;9.25;100.00
52949;BME280;38812;50.942;3.644;2023-05-02T04:58:46;102300.25;;;9.25;100.00
52949;BME280;38812;50.942;3.644;2023-05-02T05:01:12;102302.06;;;9.39;100.00
52949;BME280;38812;50.942;3.644;2023-05-02T05:03:37;102302.94;;;9.38;100.00
52949;BME280;38812;50.942;3.644;2023-05-02T05:06:03;102301.31;;;9.50;100.00
52949;BME280;38812;50.942;3.644;2023-05-02T05:08:28;102307.44;;;9.51;100.00
52949;BME280;38812;50.942;3.644;2023-05-02T05:10:54;102301.34;;;9.61;100.00
52949;BME280;38812;50.942;3.644;2023-05-02T05:13:19;102309.31;;;9.72;100.00
52949;BME280;38812;50.942;3.644;2023-05-02T05:15:44;102314.47;;;9.61;100.00
52949;BME280;38812;50.942;3.644;2023-05-02T05:18:10;102319.75;;;9.64;100.00
52949;BME280;38812;50.942;3.644;2023-05-02T05:20:35;102333.72;;;9.63;100.00
52949;BME280;38812;50.942;3.644;2023-05-02T05:23:01;102329.41;;;9.70;100.00
52949;BME280;38812;50.942;3.644;2023-05-02T05:25:27;102332.91;;;9.69;100.00
52949;BME280;38812;50.942;3.644;2023-05-02T05:27:52;102347.78;;;9.71;100.00
52949;BME280;38812;50.942;3.644;2023-05-02T05:30:19;102347.03;;;9.92;100.00
52949;BME280;38812;50.942;3.644;2023-05-02T05:32:44;102340.88;;;9.85;100.00
52949;BME280;38812;50.942;3.644;2023-05-02T05:35:10;102346.16;;;9.93;100.00
52949;BME280;38812;50.942;3.644;2023-05-02T05:37:35;102357.50;;;9.89;100.00
52949;BME280;38812;50.942;3.644;2023-05-02T05:40:07;102363.66;;;9.89;100.00
52949;BME280;38812;50.942;3.644;2023-05-02T05:42:33;102357.56;;;10.01;100.00
52949;BME280;38812;50.942;3.644;2023-05-02T05:44:58;102366.31;;;9.98;100.00
52949;BME280;38812;50.942;3.644;2023-05-02T05:47:24;102374.19;;;9.98;100.00
52949;BME280;38812;50.942;3.644;2023-05-02T05:49:54;102368.97;;;10.05;100.00
52949;BME280;38812;50.942;3.644;2023-05-02T05:52:20;102382.06;;;9.95;100.00
52949;BME280;38812;50.942;3.644;2023-05-02T05:54:45;102386.44;;;10.00;100.00
52949;BME280;38812;50.942;3.644;2023-05-02T05:57:10;102394.31;;;9.98;100.00
52949;BME280;38812;50.942;3.644;2023-05-02T05:59:36;102396.09;;;10.05;100.00
52949;BME280;38812;50.942;3.644;2023-05-02T06:02:01;102391.72;;;10.04;100.00
52949;BME280;38812;50.942;3.644;2023-05-02T06:04:28;102409.22;;;10.04;100.00
52949;BME280;38812;50.942;3.644;2023-05-02T06:06:53;102411.88;;;10.07;100.00
52949;BME280;38812;50.942;3.644;2023-05-02T06:09:19;102418.00;;;10.06;100.00
52949;BME280;38812;50.942;3.644;2023-05-02T06:11:44;102415.41;;;10.13;100.00
52949;BME280;38812;50.942;3.644;2023-05-02T06:14:10;102417.19;;;10.17;100.00
52949;BME280;38812;50.942;3.644;2023-05-02T06:16:35;102427.78;;;10.26;100.00
52949;BME280;38812;50.942;3.644;2023-05-02T06:19:01;102417.31;;;10.40;100.00
52949;BME280;38812;50.942;3.644;2023-05-02T06:21:26;102426.16;;;10.51;100.00
52949;BME280;38812;50.942;3.644;2023-05-02T06:23:52;102415.66;;;10.62;100.00
52949;BME280;38812;50.942;3.644;2023-05-02T06:26:17;102417.47;;;10.72;100.00
52949;BME280;38812;50.942;3.644;2023-05-02T06:28:42;102445.59;;;10.99;100.00
52949;BME280;38812;50.942;3.644;2023-05-02T06:31:08;102421.97;;;11.17;100.00
52949;BME280;38812;50.942;3.644;2023-05-02T06:33:34;102435.13;;;11.31;100.00
52949;BME280;38812;50.942;3.644;2023-05-02T06:36:00;102430.69;;;11.10;100.00
52949;BME280;38812;50.942;3.644;2023-05-02T06:38:25;102443.88;;;11.21;100.00
52949;BME280;38812;50.942;3.644;2023-05-02T06:40:51;102441.25;;;11.28;100.00
52949;BME280;38812;50.942;3.644;2023-05-02T06:43:17;102441.28;;;11.44;100.00
52949;BME280;38812;50.942;3.644;2023-05-02T06:45:43;102453.56;;;11.42;100.00
52949;BME280;38812;50.942;3.644;2023-05-02T06:48:08;102439.50;;;11.33;100.00
52949;BME280;38812;50.942;3.644;2023-05-02T06:50:34;102443.03;;;11.39;100.00
52949;BME280;38812;50.942;3.644;2023-05-02T06:52:59;102446.53;;;11.38;100.00
52949;BME280;38812;50.942;3.644;2023-05-02T06:55:25;102441.25;;;11.34;100.00
52949;BME280;38812;50.942;3.644;2023-05-02T06:57:51;102431.63;;;11.35;100.00
52949;BME280;38812;50.942;3.644;2023-05-02T07:00:18;102445.66;;;11.55;100.00
52949;BME280;38812;50.942;3.644;2023-05-02T07:02:44;102455.34;;;11.87;100.00
52949;BME280;38812;50.942;3.644;2023-05-02T07:05:10;102464.09;;;11.72;100.00
52949;BME280;38812;50.942;3.644;2023-05-02T07:07:35;102478.13;;;11.50;100.00
52949;BME280;38812;50.942;3.644;2023-05-02T07:10:02;102465.84;;;12.16;100.00
52949;BME280;38812;50.942;3.644;2023-05-02T07:12:27;102466.66;;;12.41;100.00
52949;BME280;38812;50.942;3.644;2023-05-02T07:14:53;102460.41;;;12.70;100.00
52949;BME280;38812;50.942;3.644;2023-05-02T07:17:18;102466.59;;;12.62;100.00
52949;BME280;38812;50.942;3.644;2023-05-02T07:19:43;102472.78;;;12.50;100.00
52949;BME280;38812;50.942;3.644;2023-05-02T07:22:09;102476.38;;;12.34;100.00
52949;BME280;38812;50.942;3.644;2023-05-02T07:24:34;102481.59;;;12.37;100.00
52949;BME280;38812;50.942;3.644;2023-05-02T07:26:59;102480.75;;;12.26;100.00
52949;BME280;38812;50.942;3.644;2023-05-02T07:29:25;102486.09;;;11.86;100.00
52949;BME280;38812;50.942;3.644;2023-05-02T07:31:51;102487.81;;;11.78;100.00
52949;BME280;38812;50.942;3.644;2023-05-02T07:34:16;102496.56;;;11.71;100.00
52949;BME280;38812;50.942;3.644;2023-05-02T07:36:42;102502.75;;;11.97;100.00
52949;BME280;38812;50.942;3.644;2023-05-02T07:39:07;102486.78;;;12.77;100.00
52949;BME280;38812;50.942;3.644;2023-05-02T07:41:32;102488.34;;;13.17;100.00
52949;BME280;38812;50.942;3.644;2023-05-02T07:43:58;102492.94;;;12.76;100.00
52949;BME280;38812;50.942;3.644;2023-05-02T07:46:23;102500.03;;;12.51;100.00
52949;BME280;38812;50.942;3.644;2023-05-02T07:48:49;102500.69;;;13.04;100.00
52949;BME280;38812;50.942;3.644;2023-05-02T07:51:15;102503.31;;;13.09;100.00
52949;BME280;38812;50.942;3.644;2023-05-02T07:53:40;102502.53;;;12.86;100.00
52949;BME280;38812;50.942;3.644;2023-05-02T07:56:06;102496.34;;;12.97;100.00
52949;BME280;38812;50.942;3.644;2023-05-02T07:58:34;102500.56;;;13.35;100.00
52949;BME280;38812;50.942;3.644;2023-05-02T08:01:00;102505.75;;;13.46;100.00
52949;BME280;38812;50.942;3.644;2023-05-02T08:03:26;102512.75;;;13.54;100.00
52949;BME280;38812;50.942;3.644;2023-05-02T08:05:52;102510.94;;;13.62;100.00
52949;BME280;38812;50.942;3.644;2023-05-02T08:08:18;102523.03;;;13.89;100.00
52949;BME280;38812;50.942;3.644;2023-05-02T08:10:43;102505.25;;;14.10;100.00
52949;BME280;38812;50.942;3.644;2023-05-02T08:13:09;102505.28;;;14.06;100.00
52949;BME280;38812;50.942;3.644;2023-05-02T08:15:35;102524.41;;;14.33;100.00
52949;BME280;38812;50.942;3.644;2023-05-02T08:18:00;102516.75;;;14.91;100.00
52949;BME280;38812;50.942;3.644;2023-05-02T08:20:26;102523.91;;;15.46;100.00
52949;BME280;38812;50.942;3.644;2023-05-02T08:22:51;102529.38;;;14.66;100.00
52949;BME280;38812;50.942;3.644;2023-05-02T08:25:16;102528.81;;;15.12;100.00
52949;BME280;38812;50.942;3.644;2023-05-02T08:27:42;102527.16;;;15.66;100.00
52949;BME280;38812;50.942;3.644;2023-05-02T08:30:07;102515.38;;;16.83;100.00
52949;BME280;38812;50.942;3.644;2023-05-02T08:32:34;102515.34;;;18.34;99.87
52949;BME280;38812;50.942;3.644;2023-05-02T08:35:00;102518.44;;;17.83;89.47
52949;BME280;38812;50.942;3.644;2023-05-02T08:37:26;102530.41;;;17.99;91.60
52949;BME280;38812;50.942;3.644;2023-05-02T08:39:52;102519.78;;;17.99;85.35
52949;BME280;38812;50.942;3.644;2023-05-02T08:42:17;102524.75;;;16.54;92.62
52949;BME280;38812;50.942;3.644;2023-05-02T08:44:45;102541.44;;;16.11;100.00
52949;BME280;38812;50.942;3.644;2023-05-02T08:47:12;102539.13;;;15.33;100.00
52949;BME280;38812;50.942;3.644;2023-05-02T08:49:40;102540.97;;;14.53;100.00
52949;BME280;38812;50.942;3.644;2023-05-02T08:52:07;102530.94;;;14.83;100.00
52949;BME280;38812;50.942;3.644;2023-05-02T08:54:36;102528.38;;;16.95;99.87
52949;BME280;38812;50.942;3.644;2023-05-02T08:57:03;102547.16;;;16.87;91.18
52949;BME280;38812;50.942;3.644;2023-05-02T08:59:29;102545.88;;;17.06;90.84
52949;BME280;38812;50.942;3.644;2023-05-02T09:01:58;102547.91;;;16.92;91.38
52949;BME280;38812;50.942;3.644;2023-05-02T09:04:30;102549.13;;;16.27;97.95
52949;BME280;38812;50.942;3.644;2023-05-02T09:06:57;102557.03;;;16.79;96.90
52949;BME280;38812;50.942;3.644;2023-05-02T09:09:22;102551.88;;;17.14;91.78
52949;BME280;38812;50.942;3.644;2023-05-02T09:11:49;102560.28;;;15.36;100.00
52949;BME280;38812;50.942;3.644;2023-05-02T09:14:16;102554.09;;;14.65;100.00
52949;BME280;38812;50.942;3.644;2023-05-02T09:16:42;102557.59;;;14.67;100.00
52949;BME280;38812;50.942;3.644;2023-05-02T09:19:08;102544.78;;;15.70;100.00
52949;BME280;38812;50.942;3.644;2023-05-02T09:21:35;102549.09;;;17.21;97.45
52949;BME280;38812;50.942;3.644;2023-05-02T09:24:14;102551.25;;;18.18;81.11
52949;BME280;38812;50.942;3.644;2023-05-02T09:26:40;102564.25;;;17.14;82.57
52949;BME280;38812;50.942;3.644;2023-05-02T09:29:05;102562.28;;;18.70;78.24
52949;BME280;38812;50.942;3.644;2023-05-02T09:31:32;102570.25;;;19.62;73.46
52949;BME280;38812;50.942;3.644;2023-05-02T09:34:11;102557.91;;;19.85;69.87
52949;BME280;38812;50.942;3.644;2023-05-02T09:36:47;102561.41;;;19.01;70.00
52949;BME280;38812;50.942;3.644;2023-05-02T09:39:23;102560.78;;;18.26;71.46
52949;BME280;38812;50.942;3.644;2023-05-02T09:41:49;102570.47;;;18.29;71.55
52949;BME280;38812;50.942;3.644;2023-05-02T09:44:17;102574.56;;;18.40;70.98
52949;BME280;38812;50.942;3.644;2023-05-02T09:46:50;102571.53;;;18.88;71.98
52949;BME280;38812;50.942;3.644;2023-05-02T09:49:16;102569.25;;;19.05;70.46
52949;BME280;38812;50.942;3.644;2023-05-02T09:51:46;102580.53;;;17.80;72.01
52949;BME280;38812;50.942;3.644;2023-05-02T09:54:12;102595.50;;;16.55;75.56
52949;BME280;38812;50.942;3.644;2023-05-02T09:56:54;102575.22;;;18.50;73.09
52949;BME280;38812;50.942;3.644;2023-05-02T09:59:21;102574.81;;;16.74;74.78
52949;BME280;38812;50.942;3.644;2023-05-02T10:01:54;102575.56;;;18.38;75.57
52949;BME280;38812;50.942;3.644;2023-05-02T10:04:19;102578.78;;;19.43;67.89
52949;BME280;38812;50.942;3.644;2023-05-02T10:06:46;102579.34;;;18.28;67.57
52949;BME280;38812;50.942;3.644;2023-05-02T10:09:13;102574.41;;;19.11;67.96
52949;BME280;38812;50.942;3.644;2023-05-02T10:11:41;102591.19;;;16.96;70.90
52949;BME280;38812;50.942;3.644;2023-05-02T10:14:09;102588.84;;;16.82;75.63
52949;BME280;38812;50.942;3.644;2023-05-02T10:16:37;102582.34;;;15.98;78.21
52949;BME280;38812;50.942;3.644;2023-05-02T10:19:08;102573.13;;;16.21;84.28
52949;BME280;38812;50.942;3.644;2023-05-02T10:21:35;102579.75;;;16.92;79.30
52949;BME280;38812;50.942;3.644;2023-05-02T10:24:01;102581.94;;;15.66;81.88
52949;BME280;38812;50.942;3.644;2023-05-02T10:26:30;102583.88;;;16.62;82.46
52949;BME280;38812;50.942;3.644;2023-05-02T10:28:56;102579.09;;;16.83;80.96
52949;BME280;38812;50.942;3.644;2023-05-02T10:31:21;102578.16;;;17.28;73.57
52949;BME280;38812;50.942;3.644;2023-05-02T10:33:50;102589.34;;;17.01;74.99
52949;BME280;38812;50.942;3.644;2023-05-02T10:36:20;102589.75;;;17.63;74.46
52949;BME280;38812;50.942;3.644;2023-05-02T10:38:47;102586.53;;;17.89;68.08
52949;BME280;38812;50.942;3.644;2023-05-02T10:41:15;102587.63;;;17.80;68.22
52949;BME280;38812;50.942;3.644;2023-05-02T10:43:45;102578.31;;;18.67;68.45
52949;BME280;38812;50.942;3.644;2023-05-02T10:46:34;102590.97;;;18.92;62.58
52949;BME280;38812;50.942;3.644;2023-05-02T10:51:27;102574.59;;;18.74;62.55
52949;BME280;38812;50.942;3.644;2023-05-02T10:53:53;102587.94;;;17.26;65.22
52949;BME280;38812;50.942;3.644;2023-05-02T10:56:19;102587.38;;;16.14;69.86
52949;BME280;38812;50.942;3.644;2023-05-02T10:58:47;102575.66;;;17.21;68.81
52949;BME280;38812;50.942;3.644;2023-05-02T11:04:01;102580.00;;;17.25;69.78
52949;BME280;38812;50.942;3.644;2023-05-02T11:06:28;102591.19;;;18.50;67.54
52949;BME280;38812;50.942;3.644;2023-05-02T11:11:49;102578.53;;;17.90;68.45
52949;BME280;38812;50.942;3.644;2023-05-02T11:19:24;102593.38;;;17.19;68.13
52949;BME280;38812;50.942;3.644;2023-05-02T11:21:50;102585.84;;;17.40;66.50
52949;BME280;38812;50.942;3.644;2023-05-02T11:24:45;102597.69;;;18.40;65.93
52949;BME280;38812;50.942;3.644;2023-05-02T11:29:57;102597.47;;;18.13;62.63
52949;BME280;38812;50.942;3.644;2023-05-02T11:32:24;102592.00;;;18.86;61.96
52949;BME280;38812;50.942;3.644;2023-05-02T11:34:51;102600.16;;;18.46;62.60
52949;BME280;38812;50.942;3.644;2023-05-02T11:37:18;102597.72;;;16.79;64.26
52949;BME280;38812;50.942;3.644;2023-05-02T11:39:45;102603.94;;;17.65;65.91
52949;BME280;38812;50.942;3.644;2023-05-02T11:42:29;102598.19;;;18.54;64.72
52949;BME280;38812;50.942;3.644;2023-05-02T11:44:58;102605.38;;;18.50;61.85
52949;BME280;38812;50.942;3.644;2023-05-02T11:47:25;102599.66;;;17.96;63.24
52949;BME280;38812;50.942;3.644;2023-05-02T11:49:54;102611.44;;;17.44;62.08
52949;BME280;38812;50.942;3.644;2023-05-02T11:52:21;102607.81;;;17.48;61.90
52949;BME280;38812;50.942;3.644;2023-05-02T11:54:47;102616.88;;;18.51;61.56
52949;BME280;38812;50.942;3.644;2023-05-02T11:57:13;102603.09;;;18.00;61.62
52949;BME280;38812;50.942;3.644;2023-05-02T11:59:53;102617.22;;;18.02;61.85
52949;BME280;38812;50.942;3.644;2023-05-02T12:02:19;102618.28;;;18.66;61.30
52949;BME280;38812;50.942;3.644;2023-05-02T12:04:45;102614.91;;;19.24;60.35
52949;BME280;38812;50.942;3.644;2023-05-02T12:07:11;102615.16;;;18.14;59.50
52949;BME280;38812;50.942;3.644;2023-05-02T12:09:49;102625.00;;;17.74;60.93
52949;BME280;38812;50.942;3.644;2023-05-02T12:12:20;102612.09;;;17.54;63.08
52949;BME280;38812;50.942;3.644;2023-05-02T12:14:45;102623.13;;;16.93;63.10
52949;BME280;38812;50.942;3.644;2023-05-02T12:17:11;102613.69;;;17.21;64.90
52949;BME280;38812;50.942;3.644;2023-05-02T12:19:36;102619.38;;;17.04;63.74
52949;BME280;38812;50.942;3.644;2023-05-02T12:22:02;102621.00;;;17.93;64.01
52949;BME280;38812;50.942;3.644;2023-05-02T12:24:28;102632.09;;;18.46;61.47
52949;BME280;38812;50.942;3.644;2023-05-02T12:27:09;102631.13;;;18.14;59.66
52949;BME280;38812;50.942;3.644;2023-05-02T12:29:43;102630.75;;;18.30;60.96
52949;BME280;38812;50.942;3.644;2023-05-02T12:32:10;102634.78;;;17.72;61.53
52949;BME280;38812;50.942;3.644;2023-05-02T12:34:36;102651.88;;;16.69;61.66
52949;BME280;38812;50.942;3.644;2023-05-02T12:37:02;102657.22;;;17.14;62.88
52949;BME280;38812;50.942;3.644;2023-05-02T12:39:41;102640.75;;;16.97;62.77
52949;BME280;38812;50.942;3.644;2023-05-02T12:42:19;102633.53;;;17.46;62.62
52949;BME280;38812;50.942;3.644;2023-05-02T12:44:47;102657.03;;;17.68;62.02
52949;BME280;38812;50.942;3.644;2023-05-02T12:47:14;102636.47;;;18.13;61.94
52949;BME280;38812;50.942;3.644;2023-05-02T12:52:14;102633.88;;;18.10;62.72
52949;BME280;38812;50.942;3.644;2023-05-02T12:54:40;102626.16;;;17.99;61.35
52949;BME280;38812;50.942;3.644;2023-05-02T12:57:05;102637.81;;;18.31;62.20
52949;BME280;38812;50.942;3.644;2023-05-02T12:59:32;102652.53;;;17.28;62.06
52949;BME280;38812;50.942;3.644;2023-05-02T13:01:58;102650.84;;;16.78;63.71
52949;BME280;38812;50.942;3.644;2023-05-02T13:04:37;102641.00;;;16.85;63.75
52949;BME280;38812;50.942;3.644;2023-05-02T13:07:04;102641.19;;;16.72;64.79
52949;BME280;38812;50.942;3.644;2023-05-02T13:09:29;102648.56;;;17.47;64.60
52949;BME280;38812;50.942;3.644;2023-05-02T13:11:55;102646.59;;;17.56;61.86
52949;BME280;38812;50.942;3.644;2023-05-02T13:14:21;102641.44;;;17.50;62.07
52949;BME280;38812;50.942;3.644;2023-05-02T13:16:48;102651.97;;;17.54;64.63
52949;BME280;38812;50.942;3.644;2023-05-02T13:19:13;102653.22;;;16.92;63.03
52949;BME280;38812;50.942;3.644;2023-05-02T13:21:39;102652.63;;;16.76;63.40